Time;durP1;ratioP1;P1;durP2;ratioP2;P2;SDS_P1;SDS_P2;PMS_P1;PMS_P2;Temp;Humidity;BMP_temperature;BMP_pressure;BME280_temperature;BME280_humidity;BME280_pressure;Samples;Min_cycle;Max_cycle;Signal;HPM_P1;HPM_P2
2020/12/24 00:01:57;;;;;;;2.03;0.57;;;;;;;2.35;91.12;100201.38;5033733;28;20451;-66
2020/12/24 00:04:22;;;;;;;3.13;1.90;;;;;;;2.31;91.01;100209.53;5050189;28;20365;-67
2020/12/24 00:06:48;;;;;;;1.83;0.80;;;;;;;2.32;91.10;100192.78;5049895;28;20041;-67
2020/12/24 00:09:13;;;;;;;5.93;0.90;;;;;;;2.38;91.14;100196.69;5050212;28;20351;-66
2020/12/24 00:11:38;;;;;;;3.00;0.80;;;;;;;2.39;90.92;100193.13;5051134;28;20037;-67
2020/12/24 00:14:04;;;;;;;2.50;0.70;;;;;;;2.35;90.80;100194.31;5033507;28;20037;-67
2020/12/24 00:16:30;;;;;;;3.03;1.00;;;;;;;2.34;90.96;100203.16;5033380;28;20518;-66
2020/12/24 00:18:55;;;;;;;2.83;0.70;;;;;;;2.30;90.70;100201.75;5050973;28;20037;-67
2020/12/24 00:21:21;;;;;;;5.93;1.30;;;;;;;2.28;90.96;100206.31;5051126;28;20075;-67
2020/12/24 00:23:46;;;;;;;2.27;1.17;;;;;;;2.30;90.93;100199.13;5050985;28;20068;-67
2020/12/24 00:26:11;;;;;;;3.20;0.70;;;;;;;2.28;90.66;100201.88;5050738;28;20029;-67
2020/12/24 00:28:37;;;;;;;1.73;0.70;;;;;;;2.29;90.95;100200.06;5050910;28;20422;-67
2020/12/24 00:31:02;;;;;;;2.73;1.10;;;;;;;2.29;90.81;100202.69;5049891;28;20045;-67
2020/12/24 00:33:27;;;;;;;4.53;0.87;;;;;;;2.30;90.87;100192.06;5050102;28;20036;-68
2020/12/24 00:35:53;;;;;;;4.93;1.00;;;;;;;2.31;90.92;100188.44;5052794;28;20417;-67
2020/12/24 00:38:18;;;;;;;4.67;0.93;;;;;;;2.28;90.94;100193.13;5054068;28;20040;-67
2020/12/24 00:40:44;;;;;;;2.27;0.87;;;;;;;2.29;91.19;100193.03;5053836;28;20033;-67
2020/12/24 00:43:09;;;;;;;2.40;1.10;;;;;;;2.32;91.20;100187.50;5054751;28;20033;-67
2020/12/24 00:45:34;;;;;;;8.93;1.63;;;;;;;2.34;91.14;100190.00;5037243;28;20040;-67
2020/12/24 00:48:00;;;;;;;4.53;1.40;;;;;;;2.34;90.96;100184.72;5054552;28;20056;-67
2020/12/24 00:50:25;;;;;;;9.20;1.53;;;;;;;2.34;90.85;100176.81;5053574;28;20041;-67
2020/12/24 00:52:50;;;;;;;3.43;1.30;;;;;;;2.32;91.05;100181.41;5053659;28;20036;-67
2020/12/24 00:55:16;;;;;;;8.13;1.00;;;;;;;2.33;91.06;100193.59;5053693;28;20043;-67
2020/12/24 00:57:41;;;;;;;3.53;1.00;;;;;;;2.31;90.88;100187.63;5053133;28;20045;-67
2020/12/24 01:00:08;;;;;;;3.05;1.67;;;;;;;2.36;91.16;100187.25;5053608;28;20107;-67
2020/12/24 01:02:36;;;;;;;5.93;1.37;;;;;;;2.37;91.28;100186.31;5037019;28;20071;-67
2020/12/24 01:05:05;;;;;;;2.95;1.25;;;;;;;2.33;91.21;100183.06;5053403;28;20474;-67
2020/12/24 01:07:31;;;;;;;4.75;1.55;;;;;;;2.32;91.11;100184.03;5054187;28;20505;-67
2020/12/24 01:09:56;;;;;;;7.50;1.27;;;;;;;2.31;91.21;100177.91;5053332;28;20076;-66
2020/12/24 01:12:21;;;;;;;10.57;2.40;;;;;;;2.36;91.34;100176.72;5053289;28;20374;-66
2020/12/24 01:14:47;;;;;;;4.70;1.60;;;;;;;2.38;91.33;100174.78;5054426;28;20075;-66
2020/12/24 01:17:12;;;;;;;5.00;2.20;;;;;;;2.37;91.43;100176.59;5053034;28;20090;-67
2020/12/24 01:19:38;;;;;;;4.57;1.70;;;;;;;2.38;91.10;100170.34;5036557;28;20120;-66
2020/12/24 01:22:03;;;;;;;8.10;1.40;;;;;;;2.36;91.16;100177.53;5053071;28;20069;-66
2020/12/24 01:24:28;;;;;;;2.07;1.60;;;;;;;2.37;91.28;100178.41;5053141;28;20037;-67
2020/12/24 01:26:54;;;;;;;6.60;1.47;;;;;;;2.38;91.14;100169.53;5053585;28;20032;-67
2020/12/24 01:29:19;;;;;;;5.73;1.43;;;;;;;2.40;91.07;100163.16;5053033;28;20098;-66
2020/12/24 01:31:46;;;;;;;5.07;1.53;;;;;;;2.37;91.21;100167.84;5052920;28;20037;-67
2020/12/24 01:34:12;;;;;;;6.15;2.03;;;;;;;2.37;91.41;100160.78;5053929;28;20833;-66
2020/12/24 01:36:37;;;;;;;8.32;2.03;;;;;;;2.35;91.24;100157.44;5052621;28;20346;-67
2020/12/24 01:39:03;;;;;;;7.37;2.10;;;;;;;2.36;91.36;100167.00;5052906;28;20059;-67
2020/12/24 01:41:28;;;;;;;9.80;2.05;;;;;;;2.35;91.29;100153.97;5052836;28;20033;-67
2020/12/24 01:43:54;;;;;;;6.10;1.57;;;;;;;2.32;91.46;100142.72;5052712;28;20055;-67
2020/12/24 01:46:19;;;;;;;5.47;2.40;;;;;;;2.34;91.45;100147.84;5052353;28;20040;-67
2020/12/24 01:48:44;;;;;;;10.30;2.63;;;;;;;2.33;91.78;100131.22;5035668;28;20465;-67
2020/12/24 01:51:14;;;;;;;8.83;2.20;;;;;;;2.32;91.62;100137.44;5052689;28;20052;-66
2020/12/24 01:53:40;;;;;;;12.02;2.67;;;;;;;2.31;91.53;100134.94;5053407;28;20036;-67
2020/12/24 01:56:05;;;;;;;5.22;2.53;;;;;;;2.36;91.63;100131.91;5053101;28;20037;-66
2020/12/24 01:58:30;;;;;;;5.30;1.83;;;;;;;2.36;91.60;100129.28;5053446;28;20036;-67
2020/12/24 02:00:55;;;;;;;16.43;2.30;;;;;;;2.34;91.51;100132.03;5053409;28;20071;-67
2020/12/24 02:03:21;;;;;;;3.57;1.50;;;;;;;2.37;91.63;100129.19;5052263;28;20055;-67
2020/12/24 02:05:46;;;;;;;4.23;1.70;;;;;;;2.38;91.36;100125.56;5053018;28;20041;-67
2020/12/24 02:08:14;;;;;;;2.73;1.17;;;;;;;2.30;91.23;100122.72;5052290;28;20061;-67
2020/12/24 02:10:40;;;;;;;7.60;2.75;;;;;;;2.29;91.21;100121.91;5052923;28;20048;-67
2020/12/24 02:13:05;;;;;;;5.03;1.37;;;;;;;2.30;91.25;100120.09;5053199;28;20029;-67
2020/12/24 02:15:30;;;;;;;3.60;1.47;;;;;;;2.31;91.51;100116.50;5052423;28;20500;-66
2020/12/24 02:17:56;;;;;;;5.40;1.40;;;;;;;2.27;91.24;100115.06;5051911;28;20459;-67
2020/12/24 02:20:21;;;;;;;3.73;0.87;;;;;;;2.26;91.43;100118.66;5052191;28;20462;-66
2020/12/24 02:22:46;;;;;;;7.83;1.53;;;;;;;2.22;91.52;100118.06;5052946;28;20040;-67
2020/12/24 02:25:12;;;;;;;1.13;0.60;;;;;;;2.23;91.67;100116.28;5051792;28;20287;-67
2020/12/24 02:27:37;;;;;;;4.57;0.87;;;;;;;2.16;91.37;100108.03;5052462;28;20090;-66
2020/12/24 02:30:04;;;;;;;1.23;0.80;;;;;;;2.22;91.65;100114.59;5052904;28;20135;-67
2020/12/24 02:32:29;;;;;;;5.25;0.80;;;;;;;2.24;91.45;100116.16;5052732;28;20450;-67
2020/12/24 02:34:55;;;;;;;3.20;1.27;;;;;;;2.22;91.45;100122.50;5051814;28;20082;-67
2020/12/24 02:37:22;;;;;;;2.95;0.90;;;;;;;2.22;91.51;100122.50;5034857;28;20121;-67
2020/12/24 02:39:49;;;;;;;1.17;1.08;;;;;;;2.20;91.46;100116.50;5052486;28;20056;-67
2020/12/24 02:42:15;;;;;;;2.63;0.90;;;;;;;2.15;91.25;100111.63;5052737;28;20029;-67
2020/12/24 02:44:40;;;;;;;1.83;1.13;;;;;;;2.16;91.44;100125.66;5052762;28;20867;-67
2020/12/24 02:47:06;;;;;;;4.00;0.77;;;;;;;2.17;91.29;100116.78;5052360;28;20431;-67
2020/12/24 02:49:31;;;;;;;1.53;1.00;;;;;;;2.13;91.35;100117.97;5051558;28;20407;-67
2020/12/24 02:51:56;;;;;;;2.33;1.37;;;;;;;2.10;91.47;100119.88;5051474;28;20074;-67
2020/12/24 02:54:22;;;;;;;6.10;2.27;;;;;;;2.12;91.40;100117.16;5051349;28;20532;-67
2020/12/24 02:56:47;;;;;;;5.67;1.30;;;;;;;2.14;91.22;100119.66;5052023;28;20059;-67
2020/12/24 02:59:12;;;;;;;3.90;1.07;;;;;;;2.13;91.38;100117.97;5035079;28;20347;-67
2020/12/24 03:01:38;;;;;;;3.23;1.20;;;;;;;2.16;91.19;100120.38;5051269;28;20033;-67
2020/12/24 03:04:03;;;;;;;5.43;0.90;;;;;;;2.05;91.26;100124.69;5051206;28;20364;-67
2020/12/24 03:06:28;;;;;;;2.70;0.80;;;;;;;2.14;91.58;100130.19;5051732;28;20473;-67
2020/12/24 03:08:54;;;;;;;3.23;1.17;;;;;;;2.13;91.46;100134.63;5052041;28;20037;-67
2020/12/24 03:11:19;;;;;;;1.13;1.00;;;;;;;2.14;91.39;100123.13;5052008;28;20037;-67
2020/12/24 03:13:44;;;;;;;2.47;1.10;;;;;;;2.17;90.97;100124.69;5052114;28;20044;-67
2020/12/24 03:16:09;;;;;;;3.33;1.20;;;;;;;2.12;91.27;100114.50;5051797;28;20028;-67
2020/12/24 03:18:35;;;;;;;2.10;1.13;;;;;;;2.08;91.29;100111.31;5051037;28;20056;-67
2020/12/24 03:21:00;;;;;;;1.80;1.30;;;;;;;2.09;91.39;100118.22;5051051;28;20033;-67
2020/12/24 03:23:25;;;;;;;4.97;1.50;;;;;;;2.15;91.56;100110.78;5050763;28;20063;-67
2020/12/24 03:25:51;;;;;;;4.40;1.60;;;;;;;2.15;91.70;100113.41;5051620;28;20040;-66
2020/12/24 03:28:16;;;;;;;4.20;1.20;;;;;;;2.18;91.68;100115.78;5051796;28;20063;-67
2020/12/24 03:30:41;;;;;;;3.67;1.43;;;;;;;2.20;91.48;100108.63;5052724;28;20044;-67
2020/12/24 03:33:07;;;;;;;3.50;1.47;;;;;;;2.15;91.52;100097.63;5051781;28;20040;-66
2020/12/24 03:35:32;;;;;;;2.70;1.40;;;;;;;2.14;91.50;100096.78;5033842;28;20287;-66
2020/12/24 03:37:58;;;;;;;10.23;2.03;;;;;;;2.16;91.53;100099.31;5050536;28;20040;-66
2020/12/24 03:40:23;;;;;;;4.47;2.00;;;;;;;2.14;91.50;100095.97;5050439;28;20040;-67
2020/12/24 03:42:48;;;;;;;4.43;1.70;;;;;;;2.13;91.46;100097.75;5050663;28;20040;-66
2020/12/24 03:45:14;;;;;;;5.23;1.70;;;;;;;2.08;91.42;100100.78;5051558;28;20032;-66
2020/12/24 03:47:40;;;;;;;4.20;1.83;;;;;;;2.11;91.57;100100.50;5052356;28;20032;-66
2020/12/24 03:50:06;;;;;;;;;;;;;;;2.14;91.61;100096.78;5051003;28;20055;-67
2020/12/24 03:52:31;;;;;;;5.88;2.13;;;;;;;2.11;91.27;100089.16;5050267;28;20371;-66
2020/12/24 03:54:56;;;;;;;4.67;1.90;;;;;;;2.16;91.21;100088.78;5050543;28;20048;-67
2020/12/24 03:57:21;;;;;;;3.50;1.97;;;;;;;2.12;91.39;100090.81;5051040;28;20040;-66
2020/12/24 03:59:47;;;;;;;4.40;1.90;;;;;;;2.07;91.32;100083.28;5051359;28;20048;-66
2020/12/24 04:02:12;;;;;;;1.90;1.30;;;;;;;2.07;91.48;100083.28;5050359;28;20381;-66
2020/12/24 04:04:37;;;;;;;4.07;1.80;;;;;;;2.05;91.36;100079.94;5052133;28;20095;-66
2020/12/24 04:07:04;;;;;;;2.53;1.77;;;;;;;2.05;91.62;100074.66;5050989;28;20041;-66
2020/12/24 04:09:29;;;;;;;;;;;;;;;2.08;91.50;100073.56;5051213;28;20071;-66
2020/12/24 04:11:54;;;;;;;;;;;;;;;2.11;91.56;100078.63;5050473;28;20312;-66
2020/12/24 04:14:20;;;;;;;2.07;1.20;;;;;;;2.07;91.40;100070.13;5050237;28;19924;-66
2020/12/24 04:16:45;;;;;;;2.93;1.67;;;;;;;2.05;91.63;100066.75;5050936;28;20036;-66
2020/12/24 04:19:10;;;;;;;4.53;1.77;;;;;;;2.08;91.67;100068.31;5033536;28;20366;-66
2020/12/24 04:21:36;;;;;;;2.93;1.90;;;;;;;2.07;91.66;100077.19;5052159;28;20032;-66
2020/12/24 04:24:01;;;;;;;6.87;2.90;;;;;;;2.08;91.70;100076.22;5051021;28;20080;-66
2020/12/24 04:26:26;;;;;;;6.30;2.60;;;;;;;2.11;91.69;100074.19;5049707;28;20343;-66
2020/12/24 04:28:52;;;;;;;9.67;3.10;;;;;;;2.14;92.24;100073.09;5050218;28;20486;-66
2020/12/24 04:31:17;;;;;;;4.60;3.20;;;;;;;2.16;92.08;100080.88;5050868;28;20476;-66
2020/12/24 04:33:43;;;;;;;4.90;2.78;;;;;;;2.14;91.96;100067.00;5050997;28;20127;-66
2020/12/24 04:36:11;;;;;;;6.45;3.20;;;;;;;2.15;91.92;100068.66;5049809;28;20470;-66
2020/12/24 04:38:36;;;;;;;7.07;2.90;;;;;;;2.21;91.85;100063.72;5050819;28;20040;-66
2020/12/24 04:41:02;;;;;;;5.63;3.07;;;;;;;2.22;92.05;100069.81;5050927;28;20385;-66
2020/12/24 04:43:28;;;;;;;4.70;2.63;;;;;;;2.21;92.21;100069.00;5050768;28;20841;-66
2020/12/24 04:45:54;;;;;;;6.80;2.70;;;;;;;2.26;91.97;100072.09;5050616;28;20625;-66
2020/12/24 04:48:20;;;;;;;5.10;2.38;;;;;;;2.22;92.04;100070.66;5049766;28;20045;-66
2020/12/24 04:50:49;;;;;;;4.10;1.90;;;;;;;2.24;91.88;100070.53;5050802;28;20086;-66
2020/12/24 04:53:14;;;;;;;6.70;2.40;;;;;;;2.23;91.74;100068.88;5050872;28;20045;-66
2020/12/24 04:55:39;;;;;;;2.33;1.30;;;;;;;2.19;91.74;100065.66;5050540;28;20132;-66
2020/12/24 04:58:08;;;;;;;3.30;1.40;;;;;;;2.22;91.83;100065.38;5033164;28;20068;-66
2020/12/24 05:00:34;;;;;;;4.03;1.30;;;;;;;2.22;91.92;100070.66;5049753;28;20530;-66
2020/12/24 05:03:07;;;;;;;3.22;1.33;;;;;;;2.19;91.98;100070.09;5050570;28;20080;-66
2020/12/24 05:05:33;;;;;;;3.30;1.70;;;;;;;2.24;91.84;100062.63;5050396;28;20037;-66
2020/12/24 05:08:01;;;;;;;7.28;3.30;;;;;;;2.22;91.71;100068.03;5049065;28;20120;-66
2020/12/24 05:10:27;;;;;;;4.75;1.88;;;;;;;2.19;91.91;100064.81;5051575;28;20385;-66
2020/12/24 05:12:52;;;;;;;3.70;1.70;;;;;;;2.16;91.56;100068.53;5057779;28;20024;-66
2020/12/24 05:15:29;;;;;;;3.93;1.87;;;;;;;2.12;91.74;100067.09;5059709;28;20037;-66
2020/12/24 05:18:11;;;;;;;3.80;1.80;;;;;;;2.16;91.93;100063.28;5049379;28;20037;-66
2020/12/24 05:20:40;;;;;;;2.25;1.10;;;;;;;2.25;91.85;100074.88;5050530;28;20072;-66
2020/12/24 05:23:13;;;;;;;2.28;1.38;;;;;;;2.16;91.60;100072.97;5051744;28;20477;-65
2020/12/24 05:25:39;;;;;;;2.78;1.10;;;;;;;2.20;91.75;100082.28;5053850;28;20040;-66
2020/12/24 05:28:04;;;;;;;4.10;1.30;;;;;;;2.21;91.39;100078.69;5055107;28;20037;-66
2020/12/24 05:30:31;;;;;;;2.83;1.00;;;;;;;2.22;91.61;100080.34;5053990;28;20325;-66
2020/12/24 05:32:57;;;;;;;1.83;0.95;;;;;;;2.19;91.48;100083.25;5052967;28;20036;-65
2020/12/24 05:35:27;;;;;;;5.73;1.40;;;;;;;2.12;91.62;100085.53;5052913;28;20043;-65
2020/12/24 05:37:53;;;;;;;2.25;1.17;;;;;;;2.16;91.44;100086.16;5052839;28;20041;-66
2020/12/24 05:40:24;;;;;;;;;;;;;;;2.16;91.58;100088.78;5053096;28;20044;-66
2020/12/24 05:42:55;;;;;;;1.40;0.82;;;;;;;2.14;91.50;100088.06;5036105;28;19913;-66
2020/12/24 05:45:23;;;;;;;3.72;1.13;;;;;;;2.13;91.46;100083.75;5053672;28;20463;-66
2020/12/24 05:48:11;;;;;;;2.08;0.60;;;;;;;2.13;91.68;100086.38;5052513;28;20687;-66
2020/12/24 05:50:38;;;;;;;3.97;0.90;;;;;;;2.16;91.49;100101.94;5052441;28;20556;-66
2020/12/24 05:53:11;;;;;;;2.97;1.02;;;;;;;2.15;91.56;100098.44;5052726;28;20045;-66
2020/12/24 05:55:39;;;;;;;2.88;0.70;;;;;;;2.14;91.54;100103.88;5052207;28;20032;-66
2020/12/24 05:58:07;;;;;;;1.15;0.68;;;;;;;2.14;91.81;100101.22;5052604;28;20033;-66
2020/12/24 06:00:37;;;;;;;2.47;0.75;;;;;;;2.14;91.61;100104.69;5036881;28;20068;-66
2020/12/24 06:03:09;;;;;;;2.95;0.73;;;;;;;2.15;91.74;100110.78;5053262;28;20047;-66
2020/12/24 06:05:55;;;;;;;3.28;1.00;;;;;;;2.16;91.85;100109.84;5052323;28;20048;-66
2020/12/24 06:08:27;;;;;;;3.72;0.80;;;;;;;2.19;91.99;100109.59;5053279;28;20064;-66
2020/12/24 06:11:02;;;;;;;2.63;1.30;;;;;;;2.21;91.69;100112.94;5053177;28;20798;-66
2020/12/24 06:13:40;;;;;;;1.80;0.90;;;;;;;2.26;91.97;100116.03;5053064;28;20473;-66
2020/12/24 06:16:08;;;;;;;4.80;1.10;;;;;;;2.16;92.02;100120.38;5051914;28;20402;-66
2020/12/24 06:18:36;;;;;;;1.30;1.00;;;;;;;2.23;91.99;100126.81;5053845;28;20557;-66
2020/12/24 06:21:02;;;;;;;2.65;0.85;;;;;;;2.21;92.08;100120.84;5053155;28;20037;-66
2020/12/24 06:23:32;;;;;;;2.75;1.10;;;;;;;2.27;92.11;100121.19;5052042;28;20029;-66
2020/12/24 06:26:03;;;;;;;3.45;1.40;;;;;;;2.23;91.92;100124.19;5052752;28;20036;-66
2020/12/24 06:28:32;;;;;;;3.92;1.40;;;;;;;2.23;92.11;100125.03;5052034;28;20037;-66
2020/12/24 06:30:59;;;;;;;2.70;1.58;;;;;;;2.29;92.08;100121.03;5051586;28;20040;-66
2020/12/24 06:33:27;;;;;;;7.28;2.08;;;;;;;2.26;91.82;100129.19;5053604;28;20050;-66
2020/12/24 06:35:52;;;;;;;2.95;1.70;;;;;;;2.31;92.21;100125.22;5051566;28;20124;-66
2020/12/24 06:38:45;;;;;;;7.23;3.47;;;;;;;2.19;92.08;100135.94;5052828;28;20040;-65
2020/12/24 06:41:30;;;;;;;7.97;2.88;;;;;;;2.26;92.32;100145.00;5052529;28;20091;-66
2020/12/24 06:43:56;;;;;;;10.48;3.08;;;;;;;2.27;92.31;100133.50;5051609;28;20037;-66
2020/12/24 06:46:22;;;;;;;3.90;2.20;;;;;;;2.20;92.32;100138.44;5052176;28;20036;-66
2020/12/24 06:49:02;;;;;;;7.72;2.65;;;;;;;2.23;92.39;100137.34;5051495;28;20041;-66
2020/12/24 06:51:46;;;;;;;7.28;2.55;;;;;;;2.32;92.26;100141.88;5052469;28;20140;-66
2020/12/24 06:54:23;;;;;;;7.00;2.90;;;;;;;2.29;92.35;100145.59;5052502;28;20078;-66
2020/12/24 06:56:49;;;;;;;6.18;2.60;;;;;;;2.30;92.24;100156.97;5051076;28;20044;-66
2020/12/24 06:59:20;;;;;;;5.28;2.63;;;;;;;2.30;92.35;100156.97;5052243;28;20025;-66
2020/12/24 07:02:00;;;;;;;8.07;3.05;;;;;;;2.34;92.27;100163.66;5052154;28;20060;-66
2020/12/24 07:04:39;;;;;;;7.80;3.70;;;;;;;2.31;92.33;100172.63;5051908;28;20134;-66
2020/12/24 07:07:05;;;;;;;8.05;2.90;;;;;;;2.37;92.33;100173.13;5054287;28;20044;-66
2020/12/24 07:09:30;;;;;;;9.52;3.28;;;;;;;2.35;92.43;100181.16;5065774;28;20194;-66
2020/12/24 07:11:56;;;;;;;6.97;3.20;;;;;;;2.36;92.27;100182.81;5058924;28;20044;-66
2020/12/24 07:14:36;;;;;;;8.63;3.25;;;;;;;2.33;92.20;100188.34;5066170;28;20044;-66
2020/12/24 07:17:13;;;;;;;11.25;3.88;;;;;;;2.32;92.27;100182.22;5071418;28;20056;-66
2020/12/24 07:19:44;;;;;;;8.18;3.03;;;;;;;2.36;92.29;100188.06;5070481;28;20193;-65
2020/12/24 07:22:16;;;;;;;9.18;3.70;;;;;;;2.34;92.20;100197.91;5071645;28;20029;-65
2020/12/24 07:24:47;;;;;;;7.40;2.95;;;;;;;2.32;92.30;100205.94;5057551;28;20058;-65
2020/12/24 07:27:13;;;;;;;9.55;2.47;;;;;;;2.29;92.31;100208.81;5050996;28;20029;-66
2020/12/24 07:29:38;;;;;;;7.00;2.43;;;;;;;2.38;92.06;100203.78;5051459;28;20202;-66
2020/12/24 07:32:06;;;;;;;5.70;2.47;;;;;;;2.32;92.00;100213.00;5033932;28;20298;-66
2020/12/24 07:34:33;;;;;;;5.15;2.45;;;;;;;2.36;92.27;100218.84;5051479;28;20359;-66
2020/12/24 07:36:58;;;;;;;9.55;3.67;;;;;;;2.35;92.29;100214.56;5050178;28;20049;-66
2020/12/24 07:39:24;;;;;;;7.10;3.50;;;;;;;2.43;92.31;100231.41;5033802;28;20051;-65
2020/12/24 07:41:50;;;;;;;11.10;3.47;;;;;;;2.39;92.16;100224.72;5064592;28;20043;-66
2020/12/24 07:44:17;;;;;;;16.83;3.95;;;;;;;2.45;92.21;100226.84;5069640;28;20604;-65
2020/12/24 07:46:44;;;;;;;8.38;4.05;;;;;;;2.40;92.11;100228.19;5069737;28;20038;-65
2020/12/24 07:49:09;;;;;;;9.63;4.78;;;;;;;2.36;92.03;100230.22;5071122;28;20369;-66
2020/12/24 07:51:34;;;;;;;7.33;4.27;;;;;;;2.38;92.26;100233.59;5071145;28;20457;-66
2020/12/24 07:54:15;;;;;;;16.57;3.83;;;;;;;2.44;91.86;100237.53;5070209;28;20398;-66
2020/12/24 07:56:47;;;;;;;7.47;3.95;;;;;;;2.43;91.78;100241.94;5070838;28;20117;-66
2020/12/24 07:59:16;;;;;;;7.40;4.03;;;;;;;2.44;91.77;100250.72;5070223;28;20059;-65
2020/12/24 08:01:42;;;;;;;5.90;3.05;;;;;;;2.41;91.66;100251.81;5071125;28;20382;-66
2020/12/24 08:04:08;;;;;;;10.68;5.25;;;;;;;2.39;91.65;100255.50;5068542;28;20036;-66
2020/12/24 08:06:34;;;;;;;10.00;4.73;;;;;;;2.43;92.10;100260.41;5050696;28;20045;-66
2020/12/24 08:09:17;;;;;;;8.75;3.42;;;;;;;2.45;91.99;100255.84;5049860;28;20324;-66
2020/12/24 08:11:56;;;;;;;9.90;3.58;;;;;;;2.42;91.77;100258.72;5050811;28;20091;-66
2020/12/24 08:14:23;;;;;;;7.28;3.17;;;;;;;2.39;91.77;100261.63;5049861;28;20116;-66
2020/12/24 08:16:48;;;;;;;;;;;;;;;2.42;91.80;100260.53;5050948;28;20148;-66
2020/12/24 08:19:22;;;;;;;;;;;;;;;2.45;91.88;100260.28;5058863;28;20348;-66
2020/12/24 08:21:58;;;;;;;11.10;3.47;;;;;;;2.48;91.94;100270.56;5056814;28;19923;-66
2020/12/24 08:24:24;;;;;;;10.13;3.78;;;;;;;2.50;91.58;100268.66;5049775;28;20056;-66
2020/12/24 08:26:49;;;;;;;5.05;2.67;;;;;;;2.45;91.64;100281.38;5033049;28;20037;-66
2020/12/24 08:29:16;;;;;;;10.38;5.22;;;;;;;2.53;91.90;100279.81;5050808;28;20434;-66
2020/12/24 08:31:42;;;;;;;11.38;3.15;;;;;;;2.52;91.76;100280.75;5050326;28;20037;-65
2020/12/24 08:34:08;;;;;;;8.07;2.90;;;;;;;2.53;91.87;100282.44;5033009;28;20144;-65
2020/12/24 08:36:40;;;;;;;;;;;;;;;2.45;91.76;100289.25;5034416;28;20041;-66
2020/12/24 08:39:07;;;;;;;8.32;3.15;;;;;;;2.57;91.93;100295.38;5049915;28;19912;-66
2020/12/24 08:41:36;;;;;;;9.23;2.55;;;;;;;2.64;92.10;100286.84;5066888;28;20396;-66
2020/12/24 08:44:04;;;;;;;5.28;2.55;;;;;;;2.69;92.11;100287.34;5070605;28;20343;-66
2020/12/24 08:46:29;;;;;;;4.78;2.17;;;;;;;2.75;91.67;100299.16;5069157;28;20101;-66
2020/12/24 08:48:55;;;;;;;4.03;2.27;;;;;;;2.77;91.72;100302.53;5069700;28;20331;-65
2020/12/24 08:51:21;;;;;;;3.60;1.60;;;;;;;2.72;91.74;100297.63;5067793;28;20297;-66
2020/12/24 08:53:47;;;;;;;;;;;;;;;2.78;91.75;100306.81;5064934;28;20291;-65
2020/12/24 08:56:16;;;;;;;;;;;;;;;2.87;91.67;100306.09;5051617;28;19922;-66
2020/12/24 08:58:54;;;;;;;7.38;2.88;;;;;;;2.84;91.54;100314.25;5053282;28;19921;-66
2020/12/24 09:01:21;;;;;;;5.43;2.05;;;;;;;2.80;91.46;100310.19;5054495;28;20453;-66
2020/12/24 09:03:47;;;;;;;7.07;2.53;;;;;;;2.79;91.71;100302.41;5054220;28;20111;-65
2020/12/24 09:06:13;;;;;;;;;;;;;;;2.85;91.76;100305.38;5054478;28;20370;-65
2020/12/24 09:08:50;;;;;;;4.28;2.40;;;;;;;2.94;91.67;100309.06;5054267;28;20005;-65
2020/12/24 09:11:28;;;;;;;8.55;3.90;;;;;;;2.99;91.59;100313.97;5054067;28;20480;-65
2020/12/24 09:13:58;;;;;;;8.68;4.18;;;;;;;2.95;91.51;100313.41;5052834;28;20086;-66
2020/12/24 09:16:23;;;;;;;10.30;4.10;;;;;;;2.87;91.54;100310.53;5052827;28;20037;-66
2020/12/24 09:19:09;;;;;;;11.32;4.70;;;;;;;2.90;91.51;100316.41;5074010;28;20362;-66
2020/12/24 09:21:35;;;;;;;8.68;5.53;;;;;;;2.92;91.69;100317.09;5056245;28;20036;-66
2020/12/24 09:24:08;;;;;;;12.23;4.25;;;;;;;2.92;91.67;100317.09;5072864;28;20039;-67
2020/12/24 09:26:48;;;;;;;13.15;5.35;;;;;;;2.90;91.72;100324.31;5055743;28;20055;-66
2020/12/24 09:29:15;;;;;;;11.35;6.05;;;;;;;2.91;91.71;100325.97;5073833;28;20476;-66
2020/12/24 09:31:40;;;;;;;;;;;;;;;2.93;91.81;100329.34;5074087;28;20041;-66
2020/12/24 09:34:06;;;;;;;;;;;;;;;2.92;91.83;100332.09;5056382;28;19923;-66
2020/12/24 09:36:31;;;;;;;19.77;6.65;;;;;;;2.97;91.93;100329.91;5073319;28;19919;-66
2020/12/24 09:38:56;;;;;;;13.33;6.20;;;;;;;2.95;91.98;100331.84;5073502;28;20373;-66
2020/12/24 09:41:22;;;;;;;24.80;7.97;;;;;;;2.98;91.95;100325.50;5070878;28;20025;-66
2020/12/24 09:43:48;;;;;;;20.90;7.05;;;;;;;3.04;91.97;100330.25;5071603;28;20047;-66
2020/12/24 09:46:14;;;;;;;20.43;8.33;;;;;;;3.06;91.90;100333.59;5070981;28;20453;-66
2020/12/24 09:48:40;;;;;;;18.40;7.07;;;;;;;3.08;92.22;100331.69;5070755;28;20059;-66
2020/12/24 09:51:05;;;;;;;15.33;7.60;;;;;;;3.12;91.93;100338.41;5071514;28;20454;-66
2020/12/24 09:53:30;;;;;;;19.43;7.80;;;;;;;3.15;91.99;100336.34;5054078;28;20314;-66
2020/12/24 09:55:56;;;;;;;30.37;10.47;;;;;;;3.11;91.89;100340.22;5071553;28;20121;-66
2020/12/24 09:58:22;;;;;;;21.70;9.82;;;;;;;3.16;91.97;100339.81;5071100;28;20100;-66
2020/12/24 10:00:48;;;;;;;29.70;9.63;;;;;;;3.17;92.09;100342.34;5070060;28;20873;-66
2020/12/24 10:03:13;;;;;;;24.92;9.45;;;;;;;3.26;91.91;100345.19;5071152;28;20123;-66
2020/12/24 10:05:39;;;;;;;26.97;11.50;;;;;;;3.27;91.79;100352.97;5069904;28;20178;-66
2020/12/24 10:08:04;;;;;;;23.43;10.57;;;;;;;3.32;92.11;100344.69;5070750;28;20119;-67
2020/12/24 10:10:29;;;;;;;27.77;11.83;;;;;;;3.35;91.96;100352.38;5071423;28;20040;-66
2020/12/24 10:12:55;;;;;;;30.90;12.77;;;;;;;3.38;92.00;100350.28;5070347;28;20119;-66
2020/12/24 10:15:20;;;;;;;36.73;13.17;;;;;;;3.40;91.74;100354.63;5070602;28;20032;-66
2020/12/24 10:17:45;;;;;;;43.30;14.47;;;;;;;3.43;91.74;100354.38;5071068;28;20115;-66
2020/12/24 10:20:11;;;;;;;37.00;13.90;;;;;;;3.41;91.67;100359.75;5071776;28;20040;-66
2020/12/24 10:22:36;;;;;;;47.80;16.87;;;;;;;3.42;91.87;100361.44;5071970;28;20044;-66
2020/12/24 10:25:01;;;;;;;60.07;17.97;;;;;;;3.35;91.69;100361.09;5071689;28;20047;-66
2020/12/24 10:27:27;;;;;;;45.67;17.23;;;;;;;3.32;91.54;100366.63;5072505;28;20032;-66
2020/12/24 10:29:52;;;;;;;36.83;15.77;;;;;;;3.42;91.81;100360.59;5071610;28;20020;-67
2020/12/24 10:32:17;;;;;;;47.23;17.67;;;;;;;3.44;91.78;100363.94;5054802;28;20097;-66
2020/12/24 10:34:43;;;;;;;48.67;19.23;;;;;;;3.41;91.74;100361.56;5072418;28;20115;-66
2020/12/24 10:37:08;;;;;;;51.90;20.23;;;;;;;3.43;91.77;100357.84;5071673;28;20466;-67
2020/12/24 10:39:33;;;;;;;55.47;20.53;;;;;;;3.46;91.84;100362.03;5053039;28;20083;-67
2020/12/24 10:41:59;;;;;;;45.60;19.90;;;;;;;3.51;91.81;100368.63;5077337;28;20020;-67
2020/12/24 10:44:24;;;;;;;54.83;21.70;;;;;;;3.57;91.91;100376.00;5091722;28;20346;-67
2020/12/24 10:46:54;;;;;;;54.30;20.73;;;;;;;3.51;91.80;100380.94;5073953;28;20449;-67
2020/12/24 10:49:20;;;;;;;60.63;22.15;;;;;;;3.47;91.80;100372.47;5050029;28;20033;-67
2020/12/24 10:51:45;;;;;;;68.40;25.07;;;;;;;3.56;91.90;100378.78;5051230;28;20048;-67
2020/12/24 10:54:10;;;;;;;61.90;23.77;;;;;;;3.62;91.82;100378.28;5052151;28;20059;-67
2020/12/24 10:56:35;;;;;;;56.70;23.33;;;;;;;3.67;92.02;100381.38;5051757;28;20024;-67
2020/12/24 10:59:01;;;;;;;53.43;22.83;;;;;;;3.62;91.88;100383.56;5049839;28;20029;-66
2020/12/24 11:01:26;;;;;;;65.90;26.83;;;;;;;3.67;91.84;100394.56;5060238;28;20361;-66
2020/12/24 11:03:51;;;;;;;61.00;22.43;;;;;;;3.69;91.58;100397.09;5071160;28;20450;-66
2020/12/24 11:06:22;;;;;;;56.87;22.93;;;;;;;3.77;91.85;100392.84;5055389;28;20233;-67
2020/12/24 11:08:48;;;;;;;57.65;22.00;;;;;;;3.77;91.64;100397.31;5074224;28;20050;-67
2020/12/24 11:11:15;;;;;;;;;;;;;;;3.83;91.67;100385.38;5092615;28;20090;-67
2020/12/24 11:13:42;;;;;;;56.38;24.80;;;;;;;3.78;91.51;100398.97;5092203;28;19951;-67
2020/12/24 11:16:07;;;;;;;65.90;25.52;;;;;;;3.81;91.62;100382.88;5077406;28;20044;-67
2020/12/24 11:18:33;;;;;;;65.43;23.00;;;;;;;3.89;91.59;100376.97;5068955;28;20047;-66
2020/12/24 11:20:59;;;;;;;;;;;;;;;3.87;91.45;100381.53;5067435;28;20495;-67
2020/12/24 11:23:24;;;;;;;;;;;;;;;3.92;91.38;100384.63;5068134;28;19937;-67
2020/12/24 11:25:49;;;;;;;55.70;24.77;;;;;;;3.88;91.58;100386.66;5067652;28;20246;-67
2020/12/24 11:28:14;;;;;;;55.33;24.03;;;;;;;3.95;91.49;100384.34;5070066;28;20029;-67
2020/12/24 11:30:40;;;;;;;53.97;23.50;;;;;;;3.90;91.35;100389.19;5054609;28;20037;-66
2020/12/24 11:33:05;;;;;;;58.03;23.00;;;;;;;3.89;91.72;100385.72;5049787;28;20098;-66
2020/12/24 11:35:31;;;;;;;52.40;20.63;;;;;;;3.89;91.73;100385.72;5050896;28;20116;-66